Hauptseite
METAR-TAF:

METAR-TAF

Flughäfen :

Verkehrslandeplatz Mönchengladbach

Mönchengladbach, Deutschland

Breite: 51-13-49N, Länge: 006-30-16E, Höhe: 38 m

Beobachtung

Neuester Wetterbericht von vor 39 Minuten, um 18:20 UTC
Wind 1 kt aus unterschiedlichen Richtungen
Temperatur 28°C
Luftfeuchtigkeit 40%
Luftdruck 1015 hPa
Sichtweite 10 km oder mehr
keine Wolken unter 1500 m und keine Kumulonimbus oder Gewitterwolken

METAR: EDLN 051820Z VRB01KT CAVOK 28/13 Q1015

Zeit: 20:59 (18:59 UTC)

Prognose

Neuester Wetterbericht von vor 1 Stunde und 59 Minuten, um 17:00 UTC
Gültige Prognose vom 05 um 18 UTC bis 06 um 03 UTC
Wind 4 kt aus Süd/Südost
Sichtweite 10 km oder mehr
keine Wolken unter 1500 m und keine Kumulonimbus oder Gewitterwolken

TAF: EDLN 051700Z 0518/0603 15004KT CAVOK

Wetterbeobachtungen und Prognosen von mehr als 4000 Flughäfen (METAR und TAF Bericht).

Die verfügbaren Stationen werden durch gelbe und rote Markierungen auf der Karte dargestellt.

Führen Sie die Maus auf sie, um den Namen der Station zu sehen.

Darauf klicken, um die Beobachtung von Wetterbeobachtungen und Prognosen zu sehen.

Um die Karte zu ändern : klicken Sie auf den grünen Tasten mit einem schwarzen Kreuz Zum Vergrößern, auf den grünen Button mit einem Gedankenstrich zu verkleinern, oder auf die grünen Pfeile für benachbarte Karten.


METAR-TAF: